sensor_id;sensor_type;location;lat;lon;timestamp;pressure;altitude;pressure_sealevel;temperature;humidity
75650;BME280;64245;51.282;22.494;2023-12-20T00:01:35;98370.50;;;3.80;100.00
75650;BME280;64245;51.282;22.494;2023-12-20T00:04:02;98372.66;;;3.75;100.00
75650;BME280;64245;51.282;22.494;2023-12-20T00:06:29;98374.97;;;3.80;100.00
75650;BME280;64245;51.282;22.494;2023-12-20T00:08:55;98371.94;;;3.85;100.00
75650;BME280;64245;51.282;22.494;2023-12-20T00:11:21;98373.88;;;3.83;100.00
75650;BME280;64245;51.282;22.494;2023-12-20T00:13:46;98363.94;;;3.85;100.00
75650;BME280;64245;51.282;22.494;2023-12-20T00:16:12;98366.13;;;3.79;100.00
75650;BME280;64245;51.282;22.494;2023-12-20T00:18:37;98368.28;;;3.86;100.00
75650;BME280;64245;51.282;22.494;2023-12-20T00:21:03;98372.91;;;3.84;100.00
75650;BME280;64245;51.282;22.494;2023-12-20T00:23:29;98379.19;;;3.83;100.00
75650;BME280;64245;51.282;22.494;2023-12-20T00:25:55;98377.00;;;3.88;100.00
75650;BME280;64245;51.282;22.494;2023-12-20T00:28:20;98367.59;;;3.84;100.00
75650;BME280;64245;51.282;22.494;2023-12-20T00:30:46;98364.06;;;3.83;100.00
75650;BME280;64245;51.282;22.494;2023-12-20T00:33:12;98365.16;;;3.80;100.00
75650;BME280;64245;51.282;22.494;2023-12-20T00:35:38;98362.63;;;3.68;100.00
75650;BME280;64245;51.282;22.494;2023-12-20T00:38:03;98359.59;;;3.72;100.00
75650;BME280;64245;51.282;22.494;2023-12-20T00:40:30;98355.47;;;3.68;100.00
75650;BME280;64245;51.282;22.494;2023-12-20T00:42:56;98357.44;;;3.66;100.00
75650;BME280;64245;51.282;22.494;2023-12-20T00:45:22;98351.84;;;3.69;100.00
75650;BME280;64245;51.282;22.494;2023-12-20T00:47:47;98356.47;;;3.67;100.00
75650;BME280;64245;51.282;22.494;2023-12-20T00:50:13;98354.31;;;3.61;100.00
75650;BME280;64245;51.282;22.494;2023-12-20T00:52:38;98331.94;;;3.53;100.00
75650;BME280;64245;51.282;22.494;2023-12-20T00:55:05;98345.13;;;3.65;100.00
75650;BME280;64245;51.282;22.494;2023-12-20T00:57:30;98341.44;;;3.66;100.00
75650;BME280;64245;51.282;22.494;2023-12-20T00:59:56;98345.47;;;3.61;100.00
75650;BME280;64245;51.282;22.494;2023-12-20T01:02:22;98331.94;;;3.64;100.00
75650;BME280;64245;51.282;22.494;2023-12-20T01:04:48;98327.69;;;3.61;100.00
75650;BME280;64245;51.282;22.494;2023-12-20T01:07:13;98321.75;;;3.46;100.00
75650;BME280;64245;51.282;22.494;2023-12-20T01:09:39;98316.19;;;3.50;100.00
75650;BME280;64245;51.282;22.494;2023-12-20T01:12:05;98313.53;;;3.50;100.00
75650;BME280;64245;51.282;22.494;2023-12-20T01:14:31;98310.75;;;3.51;100.00
75650;BME280;64245;51.282;22.494;2023-12-20T01:16:56;98310.63;;;3.53;100.00
75650;BME280;64245;51.282;22.494;2023-12-20T01:19:22;98304.72;;;3.49;100.00
75650;BME280;64245;51.282;22.494;2023-12-20T01:21:49;98298.28;;;3.52;100.00
75650;BME280;64245;51.282;22.494;2023-12-20T01:24:15;98294.19;;;3.47;100.00
75650;BME280;64245;51.282;22.494;2023-12-20T01:26:40;98297.09;;;3.56;100.00
75650;BME280;64245;51.282;22.494;2023-12-20T01:29:06;98281.22;;;3.54;100.00
75650;BME280;64245;51.282;22.494;2023-12-20T01:31:31;98282.97;;;3.44;100.00
75650;BME280;64245;51.282;22.494;2023-12-20T01:33:57;98278.84;;;3.40;100.00
75650;BME280;64245;51.282;22.494;2023-12-20T01:36:23;98261.59;;;3.23;100.00
75650;BME280;64245;51.282;22.494;2023-12-20T01:38:48;98265.84;;;3.26;100.00
75650;BME280;64245;51.282;22.494;2023-12-20T01:41:14;98262.31;;;3.14;100.00
75650;BME280;64245;51.282;22.494;2023-12-20T01:43:40;98257.25;;;3.11;100.00
75650;BME280;64245;51.282;22.494;2023-12-20T01:46:06;98273.09;;;3.24;100.00
75650;BME280;64245;51.282;22.494;2023-12-20T01:48:32;98257.72;;;3.16;100.00
75650;BME280;64245;51.282;22.494;2023-12-20T01:50:59;98264.38;;;3.22;100.00
75650;BME280;64245;51.282;22.494;2023-12-20T01:53:27;98251.56;;;3.27;100.00
75650;BME280;64245;51.282;22.494;2023-12-20T01:55:54;98256.16;;;3.25;100.00
75650;BME280;64245;51.282;22.494;2023-12-20T01:58:22;98240.31;;;3.12;100.00
75650;BME280;64245;51.282;22.494;2023-12-20T02:00:48;98251.69;;;3.25;100.00
75650;BME280;64245;51.282;22.494;2023-12-20T02:03:15;98248.28;;;3.23;100.00
75650;BME280;64245;51.282;22.494;2023-12-20T02:05:41;98243.72;;;3.14;100.00
75650;BME280;64245;51.282;22.494;2023-12-20T02:08:07;98233.53;;;3.19;100.00
75650;BME280;64245;51.282;22.494;2023-12-20T02:10:32;98236.22;;;3.19;100.00
75650;BME280;64245;51.282;22.494;2023-12-20T02:12:58;98219.16;;;3.22;100.00
75650;BME280;64245;51.282;22.494;2023-12-20T02:15:24;98215.13;;;3.27;100.00
75650;BME280;64245;51.282;22.494;2023-12-20T02:17:50;98215.72;;;3.31;100.00
75650;BME280;64245;51.282;22.494;2023-12-20T02:20:15;98197.63;;;3.25;100.00
75650;BME280;64245;51.282;22.494;2023-12-20T02:22:41;98219.09;;;3.33;100.00
75650;BME280;64245;51.282;22.494;2023-12-20T02:25:07;98198.34;;;3.27;100.00
75650;BME280;64245;51.282;22.494;2023-12-20T02:27:34;98208.50;;;3.22;100.00
75650;BME280;64245;51.282;22.494;2023-12-20T02:30:00;98191.81;;;3.20;100.00
75650;BME280;64245;51.282;22.494;2023-12-20T02:32:25;98196.25;;;3.30;100.00
75650;BME280;64245;51.282;22.494;2023-12-20T02:34:51;98189.75;;;3.23;100.00
75650;BME280;64245;51.282;22.494;2023-12-20T02:37:17;98187.84;;;3.25;100.00
75650;BME280;64245;51.282;22.494;2023-12-20T02:39:43;98195.47;;;3.19;100.00
75650;BME280;64245;51.282;22.494;2023-12-20T02:42:08;98183.84;;;3.20;100.00
75650;BME280;64245;51.282;22.494;2023-12-20T02:44:34;98180.22;;;3.21;100.00
75650;BME280;64245;51.282;22.494;2023-12-20T02:47:00;98186.50;;;3.20;100.00
75650;BME280;64245;51.282;22.494;2023-12-20T02:49:28;98187.22;;;3.22;100.00
75650;BME280;64245;51.282;22.494;2023-12-20T02:51:54;98172.84;;;3.24;100.00
75650;BME280;64245;51.282;22.494;2023-12-20T02:54:20;98166.78;;;3.22;100.00
75650;BME280;64245;51.282;22.494;2023-12-20T02:56:46;98148.41;;;3.19;100.00
75650;BME280;64245;51.282;22.494;2023-12-20T02:59:11;98159.53;;;3.24;100.00
75650;BME280;64245;51.282;22.494;2023-12-20T03:01:45;98159.34;;;3.37;100.00
75650;BME280;64245;51.282;22.494;2023-12-20T03:04:11;98159.97;;;3.29;100.00
75650;BME280;64245;51.282;22.494;2023-12-20T03:06:37;98149.25;;;3.20;100.00
75650;BME280;64245;51.282;22.494;2023-12-20T03:09:03;98145.63;;;3.21;100.00
75650;BME280;64245;51.282;22.494;2023-12-20T03:11:30;98139.59;;;3.19;100.00
75650;BME280;64245;51.282;22.494;2023-12-20T03:13:56;98152.47;;;3.34;100.00
75650;BME280;64245;51.282;22.494;2023-12-20T03:16:23;98151.38;;;3.37;100.00
75650;BME280;64245;51.282;22.494;2023-12-20T03:18:48;98160.31;;;3.36;100.00
75650;BME280;64245;51.282;22.494;2023-12-20T03:21:15;98159.97;;;3.29;100.00
75650;BME280;64245;51.282;22.494;2023-12-20T03:23:40;98152.03;;;3.18;100.00
75650;BME280;64245;51.282;22.494;2023-12-20T03:26:07;98155.50;;;3.30;100.00
75650;BME280;64245;51.282;22.494;2023-12-20T03:28:33;98160.25;;;3.26;100.00
75650;BME280;64245;51.282;22.494;2023-12-20T03:30:59;98141.28;;;3.20;100.00
75650;BME280;64245;51.282;22.494;2023-12-20T03:33:24;98154.78;;;3.28;100.00
75650;BME280;64245;51.282;22.494;2023-12-20T03:35:50;98138.81;;;3.07;100.00
75650;BME280;64245;51.282;22.494;2023-12-20T03:38:16;98148.78;;;3.15;100.00
75650;BME280;64245;51.282;22.494;2023-12-20T03:40:42;98150.81;;;3.22;100.00
75650;BME280;64245;51.282;22.494;2023-12-20T03:43:07;98145.50;;;3.22;100.00
75650;BME280;64245;51.282;22.494;2023-12-20T03:45:33;98134.03;;;3.22;100.00
75650;BME280;64245;51.282;22.494;2023-12-20T03:47:59;98129.66;;;3.21;100.00
75650;BME280;64245;51.282;22.494;2023-12-20T03:50:25;98128.56;;;3.23;100.00
75650;BME280;64245;51.282;22.494;2023-12-20T03:52:51;98138.50;;;3.21;100.00
75650;BME280;64245;51.282;22.494;2023-12-20T03:55:17;98136.72;;;3.10;100.00
75650;BME280;64245;51.282;22.494;2023-12-20T03:57:43;98143.81;;;3.21;100.00
75650;BME280;64245;51.282;22.494;2023-12-20T04:00:09;98135.38;;;3.16;100.00
75650;BME280;64245;51.282;22.494;2023-12-20T04:02:40;98138.75;;;3.18;100.00
75650;BME280;64245;51.282;22.494;2023-12-20T04:05:07;98150.47;;;3.27;100.00
75650;BME280;64245;51.282;22.494;2023-12-20T04:07:32;98162.38;;;3.32;100.00
75650;BME280;64245;51.282;22.494;2023-12-20T04:09:58;98151.03;;;3.30;100.00
75650;BME280;64245;51.282;22.494;2023-12-20T04:12:24;98174.72;;;3.33;100.00
75650;BME280;64245;51.282;22.494;2023-12-20T04:14:50;98181.00;;;3.43;100.00
75650;BME280;64245;51.282;22.494;2023-12-20T04:17:16;98174.81;;;3.43;100.00
75650;BME280;64245;51.282;22.494;2023-12-20T04:19:42;98165.16;;;3.42;100.00
75650;BME280;64245;51.282;22.494;2023-12-20T04:22:08;98169.09;;;3.47;100.00
75650;BME280;64245;51.282;22.494;2023-12-20T04:24:34;98168.59;;;3.54;100.00
75650;BME280;64245;51.282;22.494;2023-12-20T04:27:00;98158.59;;;3.46;100.00
75650;BME280;64245;51.282;22.494;2023-12-20T04:29:28;98169.88;;;3.38;100.00
75650;BME280;64245;51.282;22.494;2023-12-20T04:31:54;98167.56;;;3.45;100.00
75650;BME280;64245;51.282;22.494;2023-12-20T04:34:20;98166.84;;;3.43;100.00
75650;BME280;64245;51.282;22.494;2023-12-20T04:36:46;98147.50;;;3.30;100.00
75650;BME280;64245;51.282;22.494;2023-12-20T04:39:13;98170.59;;;3.40;100.00
75650;BME280;64245;51.282;22.494;2023-12-20T04:41:38;98154.34;;;3.23;100.00
75650;BME280;64245;51.282;22.494;2023-12-20T04:44:05;98162.31;;;3.23;100.00
75650;BME280;64245;51.282;22.494;2023-12-20T04:46:31;98167.00;;;3.30;100.00
75650;BME280;64245;51.282;22.494;2023-12-20T04:48:57;98165.09;;;3.21;100.00
75650;BME280;64245;51.282;22.494;2023-12-20T04:51:23;98160.75;;;3.20;100.00
75650;BME280;64245;51.282;22.494;2023-12-20T04:53:49;98158.47;;;3.16;100.00
75650;BME280;64245;51.282;22.494;2023-12-20T04:56:14;98153.50;;;3.11;100.00
75650;BME280;64245;51.282;22.494;2023-12-20T04:58:40;98150.84;;;3.11;100.00
75650;BME280;64245;51.282;22.494;2023-12-20T05:01:06;98156.91;;;3.13;100.00
75650;BME280;64245;51.282;22.494;2023-12-20T05:03:32;98154.53;;;2.99;100.00
75650;BME280;64245;51.282;22.494;2023-12-20T05:05:58;98177.56;;;3.09;100.00
75650;BME280;64245;51.282;22.494;2023-12-20T05:08:24;98171.69;;;3.06;100.00
75650;BME280;64245;51.282;22.494;2023-12-20T05:10:51;98169.88;;;3.06;100.00
75650;BME280;64245;51.282;22.494;2023-12-20T05:13:17;98170.84;;;3.05;100.00
75650;BME280;64245;51.282;22.494;2023-12-20T05:15:42;98158.75;;;3.01;100.00
75650;BME280;64245;51.282;22.494;2023-12-20T05:18:08;98155.72;;;2.95;100.00
75650;BME280;64245;51.282;22.494;2023-12-20T05:20:34;98151.25;;;2.95;100.00
75650;BME280;64245;51.282;22.494;2023-12-20T05:23:00;98143.53;;;3.03;100.00
75650;BME280;64245;51.282;22.494;2023-12-20T05:25:25;98149.56;;;3.05;100.00
75650;BME280;64245;51.282;22.494;2023-12-20T05:27:51;98147.88;;;3.04;100.00
75650;BME280;64245;51.282;22.494;2023-12-20T05:30:17;98138.63;;;3.08;100.00
75650;BME280;64245;51.282;22.494;2023-12-20T05:32:42;98142.56;;;3.04;100.00
75650;BME280;64245;51.282;22.494;2023-12-20T05:35:08;98144.72;;;2.99;100.00
75650;BME280;64245;51.282;22.494;2023-12-20T05:37:34;98132.16;;;3.01;100.00
75650;BME280;64245;51.282;22.494;2023-12-20T05:39:59;98130.66;;;3.08;100.00
75650;BME280;64245;51.282;22.494;2023-12-20T05:42:25;98131.72;;;3.17;100.00
75650;BME280;64245;51.282;22.494;2023-12-20T05:44:51;98140.63;;;3.27;100.00
75650;BME280;64245;51.282;22.494;2023-12-20T05:47:16;98137.78;;;3.19;100.00
75650;BME280;64245;51.282;22.494;2023-12-20T05:49:43;98140.63;;;3.27;100.00
75650;BME280;64245;51.282;22.494;2023-12-20T05:52:09;98130.88;;;3.17;100.00
75650;BME280;64245;51.282;22.494;2023-12-20T05:54:34;98134.34;;;3.28;100.00
75650;BME280;64245;51.282;22.494;2023-12-20T05:57:00;98122.91;;;3.17;100.00
75650;BME280;64245;51.282;22.494;2023-12-20T05:59:29;98129.19;;;3.16;100.00
75650;BME280;64245;51.282;22.494;2023-12-20T06:01:55;98138.13;;;3.26;100.00
75650;BME280;64245;51.282;22.494;2023-12-20T06:04:20;98138.81;;;3.28;100.00
75650;BME280;64245;51.282;22.494;2023-12-20T06:06:46;98149.44;;;3.28;100.00
75650;BME280;64245;51.282;22.494;2023-12-20T06:09:11;98131.19;;;3.34;100.00
75650;BME280;64245;51.282;22.494;2023-12-20T06:11:37;98133.84;;;3.34;100.00
75650;BME280;64245;51.282;22.494;2023-12-20T06:14:03;98135.88;;;3.42;100.00
75650;BME280;64245;51.282;22.494;2023-12-20T06:16:29;98132.75;;;3.37;100.00
75650;BME280;64245;51.282;22.494;2023-12-20T06:18:54;98129.22;;;3.36;100.00
75650;BME280;64245;51.282;22.494;2023-12-20T06:21:20;98125.97;;;3.33;100.00
75650;BME280;64245;51.282;22.494;2023-12-20T06:23:46;98131.28;;;3.44;100.00
75650;BME280;64245;51.282;22.494;2023-12-20T06:26:11;98121.97;;;3.38;100.00
75650;BME280;64245;51.282;22.494;2023-12-20T06:28:37;98123.41;;;3.42;100.00
75650;BME280;64245;51.282;22.494;2023-12-20T06:31:03;98125.94;;;3.44;100.00
75650;BME280;64245;51.282;22.494;2023-12-20T06:33:29;98120.50;;;3.45;100.00
75650;BME280;64245;51.282;22.494;2023-12-20T06:35:57;98120.63;;;3.44;100.00
75650;BME280;64245;51.282;22.494;2023-12-20T06:38:22;98129.16;;;3.47;100.00
75650;BME280;64245;51.282;22.494;2023-12-20T06:40:48;98121.00;;;3.39;100.00
75650;BME280;64245;51.282;22.494;2023-12-20T06:43:14;98130.56;;;3.42;100.00
75650;BME280;64245;51.282;22.494;2023-12-20T06:45:40;98123.28;;;3.44;100.00
75650;BME280;64245;51.282;22.494;2023-12-20T06:48:06;98129.16;;;3.47;100.00
75650;BME280;64245;51.282;22.494;2023-12-20T06:50:32;98131.31;;;3.54;100.00
75650;BME280;64245;51.282;22.494;2023-12-20T06:52:57;98144.97;;;3.60;100.00
75650;BME280;64245;51.282;22.494;2023-12-20T06:55:23;98130.22;;;3.56;100.00
75650;BME280;64245;51.282;22.494;2023-12-20T06:57:49;98125.63;;;3.58;100.00
75650;BME280;64245;51.282;22.494;2023-12-20T07:00:14;98133.59;;;3.58;100.00
75650;BME280;64245;51.282;22.494;2023-12-20T07:02:41;98138.81;;;3.60;100.00
75650;BME280;64245;51.282;22.494;2023-12-20T07:05:06;98133.47;;;3.60;100.00
75650;BME280;64245;51.282;22.494;2023-12-20T07:07:32;98121.13;;;3.59;100.00
75650;BME280;64245;51.282;22.494;2023-12-20T07:09:58;98132.16;;;3.54;100.00
75650;BME280;64245;51.282;22.494;2023-12-20T07:12:24;98129.50;;;3.54;100.00
75650;BME280;64245;51.282;22.494;2023-12-20T07:14:49;98124.97;;;3.45;100.00
75650;BME280;64245;51.282;22.494;2023-12-20T07:17:15;98127.34;;;3.48;100.00
75650;BME280;64245;51.282;22.494;2023-12-20T07:19:41;98137.84;;;3.61;100.00
75650;BME280;64245;51.282;22.494;2023-12-20T07:22:08;98118.41;;;3.49;100.00
75650;BME280;64245;51.282;22.494;2023-12-20T07:24:33;98127.47;;;3.46;100.00
75650;BME280;64245;51.282;22.494;2023-12-20T07:27:00;98138.47;;;3.53;100.00
75650;BME280;64245;51.282;22.494;2023-12-20T07:29:26;98133.16;;;3.53;100.00
75650;BME280;64245;51.282;22.494;2023-12-20T07:31:53;98133.41;;;3.50;100.00
75650;BME280;64245;51.282;22.494;2023-12-20T07:34:22;98132.25;;;3.64;100.00
75650;BME280;64245;51.282;22.494;2023-12-20T07:36:48;98135.75;;;3.64;100.00
75650;BME280;64245;51.282;22.494;2023-12-20T07:39:14;98131.06;;;3.57;100.00
75650;BME280;64245;51.282;22.494;2023-12-20T07:41:40;98131.06;;;3.57;100.00
75650;BME280;64245;51.282;22.494;2023-12-20T07:44:06;98129.13;;;3.59;100.00
75650;BME280;64245;51.282;22.494;2023-12-20T07:46:32;98136.59;;;3.65;100.00
75650;BME280;64245;51.282;22.494;2023-12-20T07:48:57;98138.59;;;3.72;100.00
75650;BME280;64245;51.282;22.494;2023-12-20T07:51:23;98140.03;;;3.76;100.00
75650;BME280;64245;51.282;22.494;2023-12-20T07:53:49;98132.03;;;3.76;100.00
75650;BME280;64245;51.282;22.494;2023-12-20T07:56:18;98124.53;;;3.81;100.00
75650;BME280;64245;51.282;22.494;2023-12-20T07:58:44;98125.78;;;3.87;100.00
75650;BME280;64245;51.282;22.494;2023-12-20T08:01:11;98124.25;;;3.85;100.00
75650;BME280;64245;51.282;22.494;2023-12-20T08:03:37;98119.22;;;3.91;100.00
75650;BME280;64245;51.282;22.494;2023-12-20T08:06:04;98112.06;;;3.82;100.00
75650;BME280;64245;51.282;22.494;2023-12-20T08:08:29;98125.25;;;3.84;100.00
75650;BME280;64245;51.282;22.494;2023-12-20T08:10:55;98133.22;;;3.84;100.00
75650;BME280;64245;51.282;22.494;2023-12-20T08:13:23;98123.81;;;3.79;100.00
75650;BME280;64245;51.282;22.494;2023-12-20T08:15:55;98126.97;;;3.73;100.00
75650;BME280;64245;51.282;22.494;2023-12-20T08:18:21;98114.50;;;3.53;100.00
75650;BME280;64245;51.282;22.494;2023-12-20T08:20:47;98122.63;;;3.52;100.00
75650;BME280;64245;51.282;22.494;2023-12-20T08:23:13;98109.91;;;3.55;100.00
75650;BME280;64245;51.282;22.494;2023-12-20T08:25:39;98122.00;;;3.59;100.00
75650;BME280;64245;51.282;22.494;2023-12-20T08:28:05;98115.22;;;3.55;100.00
75650;BME280;64245;51.282;22.494;2023-12-20T08:30:31;98110.97;;;3.64;100.00
75650;BME280;64245;51.282;22.494;2023-12-20T08:32:59;98120.47;;;3.66;100.00
75650;BME280;64245;51.282;22.494;2023-12-20T08:35:25;98110.97;;;3.64;100.00
75650;BME280;64245;51.282;22.494;2023-12-20T08:37:51;98125.03;;;3.55;100.00
75650;BME280;64245;51.282;22.494;2023-12-20T08:40:16;98118.34;;;3.60;100.00
75650;BME280;64245;51.282;22.494;2023-12-20T08:42:42;98106.53;;;3.53;100.00
75650;BME280;64245;51.282;22.494;2023-12-20T08:45:08;98108.69;;;3.59;100.00
75650;BME280;64245;51.282;22.494;2023-12-20T08:47:34;98109.13;;;3.64;100.00
75650;BME280;64245;51.282;22.494;2023-12-20T08:49:59;98100.09;;;3.56;100.00
75650;BME280;64245;51.282;22.494;2023-12-20T08:52:27;98116.78;;;3.78;100.00
75650;BME280;64245;51.282;22.494;2023-12-20T08:54:53;98111.22;;;3.81;100.00
75650;BME280;64245;51.282;22.494;2023-12-20T08:57:22;98104.91;;;3.83;100.00
75650;BME280;64245;51.282;22.494;2023-12-20T08:59:51;98112.34;;;3.89;100.00
75650;BME280;64245;51.282;22.494;2023-12-20T09:02:17;98088.22;;;3.80;100.00
75650;BME280;64245;51.282;22.494;2023-12-20T09:04:43;98100.84;;;3.88;100.00
75650;BME280;64245;51.282;22.494;2023-12-20T09:07:29;98108.41;;;3.83;100.00
75650;BME280;64245;51.282;22.494;2023-12-20T09:09:58;98100.72;;;3.90;100.00
75650;BME280;64245;51.282;22.494;2023-12-20T09:12:24;98098.38;;;3.96;100.00
75650;BME280;64245;51.282;22.494;2023-12-20T09:14:51;98089.94;;;3.91;100.00
75650;BME280;64245;51.282;22.494;2023-12-20T09:17:17;98073.34;;;3.78;100.00
75650;BME280;64245;51.282;22.494;2023-12-20T09:19:44;98084.34;;;3.94;100.00
75650;BME280;64245;51.282;22.494;2023-12-20T09:22:10;98082.91;;;3.90;100.00
75650;BME280;64245;51.282;22.494;2023-12-20T09:24:36;98070.44;;;3.91;100.00
75650;BME280;64245;51.282;22.494;2023-12-20T09:27:01;98081.69;;;3.94;100.00
75650;BME280;64245;51.282;22.494;2023-12-20T09:29:28;98074.03;;;4.01;100.00
75650;BME280;64245;51.282;22.494;2023-12-20T09:31:54;98069.47;;;3.92;100.00
75650;BME280;64245;51.282;22.494;2023-12-20T09:34:20;98068.97;;;3.98;100.00
75650;BME280;64245;51.282;22.494;2023-12-20T09:36:46;98064.34;;;4.00;100.00
75650;BME280;64245;51.282;22.494;2023-12-20T09:39:17;98050.84;;;3.92;100.00
75650;BME280;64245;51.282;22.494;2023-12-20T09:41:51;98050.38;;;3.87;100.00
75650;BME280;64245;51.282;22.494;2023-12-20T09:44:27;98069.41;;;4.03;100.00
75650;BME280;64245;51.282;22.494;2023-12-20T09:46:53;98071.16;;;3.93;100.00
75650;BME280;64245;51.282;22.494;2023-12-20T09:49:20;98064.16;;;3.92;100.00
75650;BME280;64245;51.282;22.494;2023-12-20T09:51:46;98066.03;;;4.01;100.00
75650;BME280;64245;51.282;22.494;2023-12-20T09:54:16;98051.41;;;3.95;100.00
75650;BME280;64245;51.282;22.494;2023-12-20T09:56:43;98059.16;;;3.98;100.00
75650;BME280;64245;51.282;22.494;2023-12-20T09:59:08;98055.78;;;4.06;100.00
75650;BME280;64245;51.282;22.494;2023-12-20T10:01:35;98042.59;;;4.04;100.00
75650;BME280;64245;51.282;22.494;2023-12-20T10:04:05;98049.91;;;4.02;100.00
75650;BME280;64245;51.282;22.494;2023-12-20T10:06:40;98049.06;;;4.02;100.00
75650;BME280;64245;51.282;22.494;2023-12-20T10:09:06;98047.94;;;4.04;100.00
75650;BME280;64245;51.282;22.494;2023-12-20T10:11:32;98052.47;;;4.13;100.00
75650;BME280;64245;51.282;22.494;2023-12-20T10:14:01;98040.38;;;4.09;100.00
75650;BME280;64245;51.282;22.494;2023-12-20T10:16:27;98047.25;;;4.02;100.00
75650;BME280;64245;51.282;22.494;2023-12-20T10:18:56;98037.50;;;3.92;100.00
75650;BME280;64245;51.282;22.494;2023-12-20T10:21:22;98036.94;;;3.88;100.00
75650;BME280;64245;51.282;22.494;2023-12-20T10:23:49;98040.31;;;3.90;100.00
75650;BME280;64245;51.282;22.494;2023-12-20T10:26:25;98042.13;;;3.90;100.00
75650;BME280;64245;51.282;22.494;2023-12-20T10:28:53;98033.28;;;3.89;100.00
75650;BME280;64245;51.282;22.494;2023-12-20T10:31:32;98032.78;;;3.95;100.00
75650;BME280;64245;51.282;22.494;2023-12-20T10:34:00;98020.81;;;3.90;100.00
75650;BME280;64245;51.282;22.494;2023-12-20T10:36:27;98027.75;;;4.02;100.00
75650;BME280;64245;51.282;22.494;2023-12-20T10:38:54;98011.72;;;3.92;100.00
75650;BME280;64245;51.282;22.494;2023-12-20T10:41:28;98023.97;;;4.04;100.00
75650;BME280;64245;51.282;22.494;2023-12-20T10:43:59;98023.81;;;4.06;100.00
75650;BME280;64245;51.282;22.494;2023-12-20T10:46:29;98007.72;;;4.07;100.00
75650;BME280;64245;51.282;22.494;2023-12-20T10:48:56;98017.13;;;4.11;100.00
75650;BME280;64245;51.282;22.494;2023-12-20T10:51:22;98013.63;;;4.11;100.00
75650;BME280;64245;51.282;22.494;2023-12-20T10:53:50;98011.94;;;4.10;100.00
75650;BME280;64245;51.282;22.494;2023-12-20T10:56:17;98018.28;;;4.19;100.00
75650;BME280;64245;51.282;22.494;2023-12-20T10:58:45;98010.69;;;4.24;100.00
75650;BME280;64245;51.282;22.494;2023-12-20T11:01:13;98010.16;;;4.20;100.00
75650;BME280;64245;51.282;22.494;2023-12-20T11:03:43;98001.72;;;4.15;100.00
75650;BME280;64245;51.282;22.494;2023-12-20T11:09:22;98004.78;;;4.10;100.00
75650;BME280;64245;51.282;22.494;2023-12-20T11:14:47;98000.44;;;4.09;100.00
75650;BME280;64245;51.282;22.494;2023-12-20T11:17:13;97983.97;;;3.95;100.00
75650;BME280;64245;51.282;22.494;2023-12-20T11:22:26;97995.22;;;4.08;100.00
75650;BME280;64245;51.282;22.494;2023-12-20T11:24:54;97984.56;;;3.98;100.00
75650;BME280;64245;51.282;22.494;2023-12-20T11:27:23;97987.50;;;4.05;100.00
75650;BME280;64245;51.282;22.494;2023-12-20T11:29:54;97988.09;;;4.08;100.00
75650;BME280;64245;51.282;22.494;2023-12-20T11:37:37;97987.09;;;4.09;100.00
75650;BME280;64245;51.282;22.494;2023-12-20T11:40:08;97995.22;;;4.08;100.00
75650;BME280;64245;51.282;22.494;2023-12-20T11:42:44;97987.25;;;4.08;100.00
75650;BME280;64245;51.282;22.494;2023-12-20T11:45:11;97990.09;;;4.16;100.00
75650;BME280;64245;51.282;22.494;2023-12-20T11:47:40;97985.88;;;4.13;100.00
75650;BME280;64245;51.282;22.494;2023-12-20T11:50:07;97987.69;;;4.13;100.00
75650;BME280;64245;51.282;22.494;2023-12-20T11:52:33;97963.84;;;4.02;100.00
75650;BME280;64245;51.282;22.494;2023-12-20T11:54:58;97969.56;;;3.97;100.00
75650;BME280;64245;51.282;22.494;2023-12-20T11:57:24;97981.91;;;3.98;100.00
75650;BME280;64245;51.282;22.494;2023-12-20T11:59:50;97974.34;;;4.03;100.00
75650;BME280;64245;51.282;22.494;2023-12-20T12:02:16;97967.44;;;3.91;100.00
75650;BME280;64245;51.282;22.494;2023-12-20T12:04:42;97974.44;;;3.92;100.00
75650;BME280;64245;51.282;22.494;2023-12-20T12:07:07;97951.56;;;3.90;100.00
75650;BME280;64245;51.282;22.494;2023-12-20T12:09:34;97958.84;;;3.88;100.00
75650;BME280;64245;51.282;22.494;2023-12-20T12:12:00;97965.22;;;3.96;100.00
75650;BME280;64245;51.282;22.494;2023-12-20T12:14:26;97961.97;;;3.93;100.00
75650;BME280;64245;51.282;22.494;2023-12-20T12:16:52;97967.56;;;3.90;100.00
75650;BME280;64245;51.282;22.494;2023-12-20T12:19:23;97961.94;;;3.83;100.00
75650;BME280;64245;51.282;22.494;2023-12-20T12:21:51;97966.84;;;3.78;100.00
75650;BME280;64245;51.282;22.494;2023-12-20T12:24:20;97963.84;;;3.71;100.00
75650;BME280;64245;51.282;22.494;2023-12-20T12:26:51;97955.78;;;3.52;100.00
75650;BME280;64245;51.282;22.494;2023-12-20T12:29:17;97963.78;;;3.52;100.00
75650;BME280;64245;51.282;22.494;2023-12-20T12:31:42;97953.25;;;3.51;100.00
75650;BME280;64245;51.282;22.494;2023-12-20T12:34:08;97951.41;;;3.41;100.00
75650;BME280;64245;51.282;22.494;2023-12-20T12:36:34;97956.19;;;3.47;100.00
75650;BME280;64245;51.282;22.494;2023-12-20T12:39:03;97947.63;;;3.44;100.00
75650;BME280;64245;51.282;22.494;2023-12-20T12:41:30;97949.88;;;3.48;100.00
75650;BME280;64245;51.282;22.494;2023-12-20T12:43:56;97954.06;;;3.41;100.00
75650;BME280;64245;51.282;22.494;2023-12-20T12:46:21;97954.50;;;3.46;100.00
75650;BME280;64245;51.282;22.494;2023-12-20T12:48:47;97957.69;;;3.40;100.00
75650;BME280;64245;51.282;22.494;2023-12-20T12:51:14;97936.34;;;3.31;100.00
75650;BME280;64245;51.282;22.494;2023-12-20T12:53:40;97949.84;;;3.39;100.00
75650;BME280;64245;51.282;22.494;2023-12-20T12:56:06;97952.78;;;3.36;100.00
75650;BME280;64245;51.282;22.494;2023-12-20T12:58:32;97934.41;;;3.33;100.00
75650;BME280;64245;51.282;22.494;2023-12-20T13:00:58;97948.28;;;3.36;100.00